Time;durP1;ratioP1;P1;durP2;ratioP2;P2;SDS_P1;SDS_P2;PMS_P1;PMS_P2;Temp;Humidity;BMP_temperature;BMP_pressure;BME280_temperature;BME280_humidity;BME280_pressure;Samples;Min_cycle;Max_cycle;Signal;HPM_P1;HPM_P2
2022/12/01 00:02:15;;;;;;;7.72;4.80;;;;;;;;;;5056823;28;20025;-77
2022/12/01 00:04:41;;;;;;;9.60;4.82;;;;;;;;;;5059619;28;20021;-76
2022/12/01 00:07:07;;;;;;;7.53;5.28;;;;;;;;;;5062067;28;20052;-76
2022/12/01 00:12:18;;;;;;;7.18;5.05;;;;;;;;;;5055314;28;20124;-75
2022/12/01 00:14:53;;;;;;;9.35;5.55;;;;;;;;;;5059083;28;20505;-75
2022/12/01 00:17:19;;;;;;;10.73;6.25;;;;;;;;;;5061191;28;20515;-74
2022/12/01 00:19:45;;;;;;;12.80;6.03;;;;;;;;;;5056870;28;20569;-74
2022/12/01 00:22:12;;;;;;;11.90;5.85;;;;;;;;;;5064601;28;20025;-74
2022/12/01 00:24:38;;;;;;;10.88;5.47;;;;;;;;;;5060684;28;20050;-74
2022/12/01 00:27:04;;;;;;;7.53;5.97;;;;;;;;;;5053068;28;20123;-74
2022/12/01 00:29:30;;;;;;;9.00;6.43;;;;;;;;;;5058857;28;20028;-74
2022/12/01 00:31:57;;;;;;;9.00;5.63;;;;;;;;;;5056819;28;20021;-74
2022/12/01 00:34:25;;;;;;;13.68;6.10;;;;;;;;;;5060251;28;20043;-74
2022/12/01 00:36:51;;;;;;;10.10;6.15;;;;;;;;;;5055154;28;20028;-74
2022/12/01 00:39:17;;;;;;;9.18;6.10;;;;;;;;;;5056927;28;20528;-74
2022/12/01 00:41:43;;;;;;;9.40;5.55;;;;;;;;;;5064020;28;20032;-74
2022/12/01 00:44:09;;;;;;;8.60;6.15;;;;;;;;;;5065921;28;20028;-74
2022/12/01 00:46:36;;;;;;;8.80;6.28;;;;;;;;;;5060289;28;20334;-74
2022/12/01 00:49:02;;;;;;;10.43;5.70;;;;;;;;;;5065123;28;20040;-74
2022/12/01 00:51:28;;;;;;;9.93;5.78;;;;;;;;;;5062248;28;20078;-75
2022/12/01 00:53:54;;;;;;;9.35;5.57;;;;;;;;;;5061272;28;20047;-74
2022/12/01 00:56:20;;;;;;;9.00;6.13;;;;;;;;;;5060360;28;20039;-74
2022/12/01 00:58:46;;;;;;;9.43;6.43;;;;;;;;;;5054746;28;20017;-74
2022/12/01 01:01:12;;;;;;;6.88;5.35;;;;;;;;;;5058204;28;20047;-74
2022/12/01 01:03:39;;;;;;;8.65;5.88;;;;;;;;;;5056708;28;20109;-74
2022/12/01 01:06:06;;;;;;;8.45;5.82;;;;;;;;;;5063210;28;20031;-74
2022/12/01 01:08:32;;;;;;;7.75;5.38;;;;;;;;;;5059707;28;20561;-74
2022/12/01 01:10:59;;;;;;;8.82;5.32;;;;;;;;;;5060966;28;20058;-74
2022/12/01 01:13:25;;;;;;;11.45;5.75;;;;;;;;;;5066014;28;20035;-74
2022/12/01 01:16:01;;;;;;;10.07;6.00;;;;;;;;;;5067045;28;20086;-74
2022/12/01 01:18:28;;;;;;;7.68;5.78;;;;;;;;;;5067077;28;20473;-74
2022/12/01 01:20:55;;;;;;;9.02;5.55;;;;;;;;;;5067936;28;20038;-74
2022/12/01 01:23:21;;;;;;;8.48;6.20;;;;;;;;;;5067711;28;20603;-75
2022/12/01 01:25:47;;;;;;;9.57;6.63;;;;;;;;;;5069663;28;20037;-74
2022/12/01 01:28:13;;;;;;;8.45;6.22;;;;;;;;;;5067481;28;20021;-75
2022/12/01 01:30:40;;;;;;;9.30;5.90;;;;;;;;;;5069084;28;20033;-74
2022/12/01 01:33:06;;;;;;;7.55;5.40;;;;;;;;;;5070253;28;20062;-74
2022/12/01 01:35:32;;;;;;;8.93;5.93;;;;;;;;;;5068551;28;20024;-74
2022/12/01 01:37:58;;;;;;;8.35;6.07;;;;;;;;;;5066668;28;20020;-75
2022/12/01 01:40:24;;;;;;;9.65;6.10;;;;;;;;;;5064766;28;20036;-74
2022/12/01 01:42:50;;;;;;;10.18;6.18;;;;;;;;;;5066778;28;20024;-74
2022/12/01 01:45:21;;;;;;;9.95;5.55;;;;;;;;;;5067010;28;20045;-74
2022/12/01 01:47:49;;;;;;;10.53;5.30;;;;;;;;;;5070407;28;20404;-74
2022/12/01 01:50:16;;;;;;;9.57;5.68;;;;;;;;;;5070114;28;20032;-74
2022/12/01 01:52:47;;;;;;;9.23;5.10;;;;;;;;;;5068373;28;20040;-74
2022/12/01 01:55:13;;;;;;;9.05;5.40;;;;;;;;;;5068830;28;20024;-74
2022/12/01 01:57:40;;;;;;;8.52;5.50;;;;;;;;;;5069398;28;20017;-74
2022/12/01 02:00:11;;;;;;;7.78;5.00;;;;;;;;;;5069720;28;20029;-75
2022/12/01 02:02:42;;;;;;;6.90;4.85;;;;;;;;;;5069319;28;20111;-74
2022/12/01 02:05:09;;;;;;;8.45;5.18;;;;;;;;;;5064811;28;20033;-74
2022/12/01 02:07:37;;;;;;;9.38;5.57;;;;;;;;;;5062234;28;20556;-74
2022/12/01 02:10:04;;;;;;;10.13;5.55;;;;;;;;;;5068899;28;20561;-75
2022/12/01 02:12:35;;;;;;;7.90;5.10;;;;;;;;;;5068848;28;20023;-74
2022/12/01 02:15:01;;;;;;;15.27;5.77;;;;;;;;;;5068852;28;20139;-75
2022/12/01 02:17:30;;;;;;;8.15;5.05;;;;;;;;;;5069489;28;20037;-74
2022/12/01 02:20:02;;;;;;;8.13;5.22;;;;;;;;;;5069032;28;20033;-74
2022/12/01 02:22:47;;;;;;;7.93;5.30;;;;;;;;;;5069105;28;20032;-74
2022/12/01 02:25:13;;;;;;;9.10;5.45;;;;;;;;;;5069561;28;20032;-74
2022/12/01 02:27:54;;;;;;;7.63;5.38;;;;;;;;;;5082647;28;20556;-74
2022/12/01 02:30:39;;;;;;;7.00;5.80;;;;;;;;;;5066979;28;20020;-74
2022/12/01 02:33:21;;;;;;;7.65;6.35;;;;;;;;;;5084428;28;20062;-74
2022/12/01 02:36:25;;;;;;;9.82;5.55;;;;;;;;;;5066367;28;20016;-74
2022/12/01 02:38:54;;;;;;;8.32;5.55;;;;;;;;;;5016557;28;20034;-75
2022/12/01 02:41:24;;;;;;;9.82;5.50;;;;;;;;;;5007714;28;20081;-74
2022/12/01 02:43:59;;;;;;;10.35;5.95;;;;;;;;;;5047379;28;20032;-74
2022/12/01 02:46:44;;;;;;;8.52;6.20;;;;;;;;;;5067131;28;20036;-74
2022/12/01 02:49:15;;;;;;;10.18;5.35;;;;;;;;;;5068677;28;20831;-74
2022/12/01 02:51:45;;;;;;;12.48;6.43;;;;;;;;;;5069816;28;20376;-75
2022/12/01 02:54:13;;;;;;;8.43;5.43;;;;;;;;;;5067804;28;20089;-74
2022/12/01 02:56:39;;;;;;;13.57;5.38;;;;;;;;;;5067662;28;20090;-75
2022/12/01 02:59:14;;;;;;;9.77;5.75;;;;;;;;;;5067052;28;20025;-74
2022/12/01 03:01:43;;;;;;;8.43;5.80;;;;;;;;;;5067164;28;20044;-74
2022/12/01 03:04:10;;;;;;;9.60;5.68;;;;;;;;;;5056248;28;20028;-74
2022/12/01 03:06:36;;;;;;;9.07;5.13;;;;;;;;;;5057897;28;20083;-74
2022/12/01 03:09:11;;;;;;;8.63;5.70;;;;;;;;;;5057382;28;20021;-74
2022/12/01 03:11:50;;;;;;;7.30;5.57;;;;;;;;;;5063073;28;20037;-74
2022/12/01 03:14:16;;;;;;;12.15;6.07;;;;;;;;;;5063753;28;20052;-74
2022/12/01 03:16:52;;;;;;;11.20;5.88;;;;;;;;;;5062386;28;20036;-74
2022/12/01 03:19:26;;;;;;;9.77;5.65;;;;;;;;;;5063346;28;20039;-74
2022/12/01 03:21:55;;;;;;;8.32;5.07;;;;;;;;;;5061454;28;20614;-74
2022/12/01 03:24:23;;;;;;;7.50;5.47;;;;;;;;;;5063329;28;20024;-74
2022/12/01 03:26:52;;;;;;;9.77;5.32;;;;;;;;;;5062646;28;20055;-74
2022/12/01 03:29:21;;;;;;;10.02;5.30;;;;;;;;;;5062815;28;20032;-74
2022/12/01 03:31:49;;;;;;;8.13;5.07;;;;;;;;;;5047646;28;20028;-74
2022/12/01 03:34:36;;;;;;;8.85;4.75;;;;;;;;;;5054728;28;20031;-74
2022/12/01 03:37:06;;;;;;;9.40;5.20;;;;;;;;;;5061727;28;20024;-74
2022/12/01 03:39:34;;;;;;;8.50;5.10;;;;;;;;;;5063502;28;20567;-74
2022/12/01 03:42:03;;;;;;;7.13;5.45;;;;;;;;;;5062993;28;20029;-74
2022/12/01 03:44:31;;;;;;;7.50;4.75;;;;;;;;;;5063483;28;20036;-74
2022/12/01 03:47:05;;;;;;;8.52;5.00;;;;;;;;;;5060936;28;20036;-74
2022/12/01 03:49:31;;;;;;;9.90;5.15;;;;;;;;;;5063188;28;20047;-75
2022/12/01 03:52:02;;;;;;;5.43;4.38;;;;;;;;;;5062724;28;20145;-75
2022/12/01 03:54:53;;;;;;;6.95;4.75;;;;;;;;;;5063524;28;20350;-74
2022/12/01 03:57:25;;;;;;;7.05;4.13;;;;;;;;;;5062178;28;20021;-74
2022/12/01 03:59:51;;;;;;;14.98;5.03;;;;;;;;;;5061366;28;20114;-74
2022/12/01 04:02:18;;;;;;;6.07;4.30;;;;;;;;;;5061007;28;20020;-74
2022/12/01 04:04:44;;;;;;;7.72;4.30;;;;;;;;;;5063511;28;20073;-74
2022/12/01 04:07:13;;;;;;;7.28;4.20;;;;;;;;;;5062344;28;20074;-74
2022/12/01 04:09:40;;;;;;;5.80;3.80;;;;;;;;;;5062076;28;20075;-74
2022/12/01 04:14:51;;;;;;;9.90;4.50;;;;;;;;;;5064445;28;20067;-74
2022/12/01 04:17:18;;;;;;;8.77;4.00;;;;;;;;;;5060703;28;20024;-74
2022/12/01 04:19:44;;;;;;;6.97;3.72;;;;;;;;;;5064609;28;20082;-74
2022/12/01 04:22:10;;;;;;;10.15;4.43;;;;;;;;;;5060412;28;20486;-74
2022/12/01 04:24:36;;;;;;;5.47;3.58;;;;;;;;;;5063896;28;20043;-74
2022/12/01 04:27:02;;;;;;;7.35;4.43;;;;;;;;;;5058187;28;20094;-74
2022/12/01 04:29:28;;;;;;;8.13;4.28;;;;;;;;;;5050080;28;20025;-74
2022/12/01 04:31:54;;;;;;;7.60;4.10;;;;;;;;;;5048556;28;20147;-74
2022/12/01 04:34:20;;;;;;;6.00;3.80;;;;;;;;;;5047920;28;20020;-74
2022/12/01 04:36:47;;;;;;;5.65;3.55;;;;;;;;;;5048868;28;20539;-75
2022/12/01 04:39:13;;;;;;;7.30;4.15;;;;;;;;;;5052159;28;20621;-74
2022/12/01 04:41:39;;;;;;;7.28;3.85;;;;;;;;;;5048411;28;20570;-74
2022/12/01 04:44:05;;;;;;;6.75;4.10;;;;;;;;;;5051863;28;20125;-74
2022/12/01 04:46:31;;;;;;;10.48;3.75;;;;;;;;;;5050797;28;20024;-74
2022/12/01 04:48:57;;;;;;;5.35;3.90;;;;;;;;;;5048509;28;20045;-74
2022/12/01 04:51:24;;;;;;;5.45;4.00;;;;;;;;;;5047870;28;20420;-74
2022/12/01 04:53:50;;;;;;;8.30;4.03;;;;;;;;;;5054586;28;20027;-74
2022/12/01 04:56:16;;;;;;;4.13;3.17;;;;;;;;;;5049762;28;20170;-74
2022/12/01 04:58:43;;;;;;;5.63;3.50;;;;;;;;;;5044297;28;20029;-74
2022/12/01 05:01:13;;;;;;;6.53;3.58;;;;;;;;;;5050909;28;20493;-74
2022/12/01 05:03:40;;;;;;;7.50;3.42;;;;;;;;;;5041198;28;20033;-74
2022/12/01 05:06:08;;;;;;;5.97;3.17;;;;;;;;;;5053563;28;20024;-74
2022/12/01 05:08:34;;;;;;;8.02;3.67;;;;;;;;;;5055559;28;20035;-74
2022/12/01 05:11:01;;;;;;;6.50;3.33;;;;;;;;;;5049923;28;20031;-74
2022/12/01 05:13:27;;;;;;;5.72;3.33;;;;;;;;;;5045209;28;20046;-74
2022/12/01 05:15:53;;;;;;;11.27;3.45;;;;;;;;;;5043021;28;20592;-74
2022/12/01 05:18:19;;;;;;;11.23;3.25;;;;;;;;;;5051525;28;20031;-74
2022/12/01 05:20:58;;;;;;;4.78;3.20;;;;;;;;;;5047436;28;20040;-74
2022/12/01 05:23:28;;;;;;;5.03;3.53;;;;;;;;;;5047006;28;20028;-74
2022/12/01 05:25:54;;;;;;;5.65;2.85;;;;;;;;;;5041967;28;20066;-74
2022/12/01 05:28:21;;;;;;;5.80;3.45;;;;;;;;;;5042974;28;20708;-74
2022/12/01 05:30:48;;;;;;;4.95;3.65;;;;;;;;;;5039892;28;21157;-74
2022/12/01 05:33:14;;;;;;;9.48;3.95;;;;;;;;;;5048501;28;20051;-74
2022/12/01 05:35:40;;;;;;;5.35;3.00;;;;;;;;;;5053813;28;20035;-74
2022/12/01 05:38:06;;;;;;;5.63;3.42;;;;;;;;;;5048425;28;20950;-74
2022/12/01 05:40:33;;;;;;;6.20;3.53;;;;;;;;;;5049138;28;20033;-74
2022/12/01 05:42:59;;;;;;;4.32;3.15;;;;;;;;;;5049255;28;20041;-74
2022/12/01 05:45:25;;;;;;;6.32;3.95;;;;;;;;;;5050914;28;20024;-74
2022/12/01 05:47:55;;;;;;;7.50;3.53;;;;;;;;;;5047279;28;20070;-74
2022/12/01 05:50:22;;;;;;;6.50;3.53;;;;;;;;;;5042346;28;20040;-74
2022/12/01 05:52:48;;;;;;;9.43;3.45;;;;;;;;;;5044181;28;20027;-74
2022/12/01 05:55:14;;;;;;;4.45;3.35;;;;;;;;;;5041344;28;20036;-75
2022/12/01 05:57:40;;;;;;;5.25;3.60;;;;;;;;;;5049995;28;20028;-75
2022/12/01 06:00:07;;;;;;;9.98;3.72;;;;;;;;;;5046562;28;20124;-74
2022/12/01 06:02:33;;;;;;;6.05;3.58;;;;;;;;;;5043240;28;20023;-74
2022/12/01 06:04:59;;;;;;;5.35;3.40;;;;;;;;;;5050133;28;20456;-74
2022/12/01 06:07:25;;;;;;;6.45;3.58;;;;;;;;;;5049746;28;20103;-75
2022/12/01 06:09:52;;;;;;;8.18;3.67;;;;;;;;;;5045153;28;20021;-74
2022/12/01 06:12:19;;;;;;;5.75;3.50;;;;;;;;;;5047986;28;20640;-74
2022/12/01 06:14:45;;;;;;;5.38;3.35;;;;;;;;;;5046060;28;20036;-74
2022/12/01 06:17:11;;;;;;;6.07;3.85;;;;;;;;;;5046258;28;20531;-75
2022/12/01 06:19:38;;;;;;;9.55;4.00;;;;;;;;;;5052418;28;20031;-74
2022/12/01 06:22:04;;;;;;;7.13;3.95;;;;;;;;;;5061825;28;20108;-74
2022/12/01 06:24:31;;;;;;;6.85;3.70;;;;;;;;;;5061431;28;20044;-73
2022/12/01 06:26:57;;;;;;;6.65;3.72;;;;;;;;;;5052472;28;20033;-74
2022/12/01 06:29:23;;;;;;;6.07;3.42;;;;;;;;;;5056920;28;20074;-74
2022/12/01 06:31:49;;;;;;;4.72;3.30;;;;;;;;;;5051020;28;20071;-74
2022/12/01 06:34:15;;;;;;;7.68;3.75;;;;;;;;;;5049370;28;20041;-74
2022/12/01 06:36:41;;;;;;;5.20;3.20;;;;;;;;;;5054003;28;20033;-74
2022/12/01 06:39:08;;;;;;;5.43;3.30;;;;;;;;;;5049754;28;20020;-74
2022/12/01 06:41:35;;;;;;;5.45;3.50;;;;;;;;;;5047299;28;20079;-74
2022/12/01 06:44:01;;;;;;;5.47;3.28;;;;;;;;;;5048506;28;20627;-73
2022/12/01 06:46:28;;;;;;;5.05;3.70;;;;;;;;;;5044510;28;20036;-74
2022/12/01 06:48:54;;;;;;;7.70;3.53;;;;;;;;;;5051187;28;20044;-73
2022/12/01 06:51:20;;;;;;;8.82;4.68;;;;;;;;;;5055881;28;20029;-76
2022/12/01 06:53:46;;;;;;;9.82;5.50;;;;;;;;;;5057300;28;20111;-73
2022/12/01 06:56:12;;;;;;;8.88;5.68;;;;;;;;;;5049456;28;20024;-73
2022/12/01 06:58:38;;;;;;;8.45;5.00;;;;;;;;;;5056660;28;20491;-74
2022/12/01 07:01:11;;;;;;;10.45;5.25;;;;;;;;;;5052788;28;20037;-73
2022/12/01 07:03:38;;;;;;;7.85;4.53;;;;;;;;;;5054293;28;20059;-74
2022/12/01 07:06:04;;;;;;;11.63;4.72;;;;;;;;;;5062957;28;20332;-74
2022/12/01 07:08:31;;;;;;;8.55;4.50;;;;;;;;;;5055955;28;20036;-73
2022/12/01 07:10:58;;;;;;;7.57;4.40;;;;;;;;;;5049355;28;20108;-74
2022/12/01 07:13:24;;;;;;;7.22;4.53;;;;;;;;;;5051910;28;20155;-74
2022/12/01 07:15:50;;;;;;;10.27;4.63;;;;;;;;;;5049915;28;20028;-74
2022/12/01 07:18:16;;;;;;;8.68;3.97;;;;;;;;;;5051949;28;20426;-73
2022/12/01 07:20:42;;;;;;;10.57;4.85;;;;;;;;;;5052168;28;20032;-76
2022/12/01 07:23:08;;;;;;;8.20;4.65;;;;;;;;;;5053124;28;20028;-74
2022/12/01 07:25:35;;;;;;;7.88;5.15;;;;;;;;;;5054616;28;20040;-72
2022/12/01 07:28:01;;;;;;;7.07;4.13;;;;;;;;;;5052038;28;20075;-73
2022/12/01 07:30:27;;;;;;;8.20;4.60;;;;;;;;;;5051390;28;20146;-73
2022/12/01 07:32:53;;;;;;;8.15;5.05;;;;;;;;;;5053285;28;20459;-73
2022/12/01 07:35:19;;;;;;;7.50;4.50;;;;;;;;;;5051079;28;20020;-73
2022/12/01 07:37:45;;;;;;;10.32;4.90;;;;;;;;;;5050883;28;20033;-73
2022/12/01 07:40:13;;;;;;;7.35;4.60;;;;;;;;;;5054143;28;20090;-73
2022/12/01 07:42:42;;;;;;;7.32;4.65;;;;;;;;;;5061981;28;20029;-73
2022/12/01 07:45:09;;;;;;;10.13;5.05;;;;;;;;;;5059105;28;20464;-73
2022/12/01 07:47:35;;;;;;;8.55;4.50;;;;;;;;;;5055058;28;20046;-72
2022/12/01 07:50:01;;;;;;;6.15;4.70;;;;;;;;;;5057080;28;20057;-73
2022/12/01 07:52:27;;;;;;;8.30;4.20;;;;;;;;;;5057126;28;20024;-73
2022/12/01 07:54:53;;;;;;;4.68;3.55;;;;;;;;;;5058227;28;20031;-73
2022/12/01 07:57:19;;;;;;;5.60;4.15;;;;;;;;;;5053613;28;20821;-72
2022/12/01 07:59:45;;;;;;;7.65;3.92;;;;;;;;;;5050922;28;20104;-72
2022/12/01 08:02:12;;;;;;;7.88;4.55;;;;;;;;;;5054044;28;20025;-72
2022/12/01 08:04:38;;;;;;;10.98;4.57;;;;;;;;;;5055392;28;20414;-72
2022/12/01 08:07:04;;;;;;;7.22;4.47;;;;;;;;;;5062200;28;20033;-72
2022/12/01 08:09:31;;;;;;;6.30;4.35;;;;;;;;;;5061286;28;20021;-72
2022/12/01 08:11:57;;;;;;;4.95;3.90;;;;;;;;;;5060270;28;20033;-72
2022/12/01 08:14:23;;;;;;;6.47;4.53;;;;;;;;;;5055908;28;20017;-72
2022/12/01 08:16:49;;;;;;;17.33;7.70;;;;;;;;;;5059207;28;20021;-72
2022/12/01 08:19:15;;;;;;;13.20;8.32;;;;;;;;;;5051978;28;20040;-72
2022/12/01 08:21:41;;;;;;;11.10;8.40;;;;;;;;;;5055572;28;20683;-72
2022/12/01 08:24:07;;;;;;;12.48;8.02;;;;;;;;;;5061331;28;20039;-72
2022/12/01 08:26:33;;;;;;;9.93;6.60;;;;;;;;;;5060710;28;20021;-72
2022/12/01 08:29:00;;;;;;;9.52;5.68;;;;;;;;;;5051709;28;20158;-72
2022/12/01 08:31:27;;;;;;;7.85;5.07;;;;;;;;;;5052089;28;20099;-73
2022/12/01 08:33:54;;;;;;;6.10;4.75;;;;;;;;;;5054201;28;20067;-72
2022/12/01 08:36:21;;;;;;;9.77;5.45;;;;;;;;;;5054217;28;20737;-72
2022/12/01 08:38:48;;;;;;;12.00;5.38;;;;;;;;;;5053873;28;20438;-73
2022/12/01 08:41:15;;;;;;;9.75;4.05;;;;;;;;;;5053711;28;20047;-72
2022/12/01 08:43:43;;;;;;;7.70;4.32;;;;;;;;;;5056096;28;20032;-73
2022/12/01 08:46:10;;;;;;;6.93;4.10;;;;;;;;;;5058879;28;20032;-73
2022/12/01 08:48:36;;;;;;;4.50;3.60;;;;;;;;;;5059277;28;20105;-73
2022/12/01 08:51:05;;;;;;;9.07;4.60;;;;;;;;;;5054596;28;20024;-72
2022/12/01 08:53:32;;;;;;;8.45;3.95;;;;;;;;;;5057647;28;20028;-73
2022/12/01 08:55:59;;;;;;;5.65;4.05;;;;;;;;;;5049413;28;20021;-72
2022/12/01 08:58:26;;;;;;;6.53;4.90;;;;;;;;;;5055281;28;20028;-72
2022/12/01 09:00:52;;;;;;;7.30;4.55;;;;;;;;;;5055083;28;20024;-72
2022/12/01 09:03:18;;;;;;;6.07;4.72;;;;;;;;;;5055640;28;20020;-72
2022/12/01 09:05:44;;;;;;;4.90;3.72;;;;;;;;;;5053160;28;20028;-72
2022/12/01 09:10:55;;;;;;;9.88;3.90;;;;;;;;;;5051730;28;20076;-73
2022/12/01 09:13:21;;;;;;;6.75;3.95;;;;;;;;;;5056758;28;20024;-72
2022/12/01 09:16:01;;;;;;;8.38;4.00;;;;;;;;;;5055330;28;21441;-73
2022/12/01 09:18:27;;;;;;;6.40;3.92;;;;;;;;;;5047013;28;20054;-73
2022/12/01 09:20:54;;;;;;;6.00;3.90;;;;;;;;;;5056676;28;20028;-73
2022/12/01 09:23:21;;;;;;;15.63;3.90;;;;;;;;;;5053708;28;20697;-75
2022/12/01 09:25:48;;;;;;;10.20;4.20;;;;;;;;;;5057672;28;20151;-75
2022/12/01 09:28:15;;;;;;;5.55;3.33;;;;;;;;;;5060209;28;20021;-75
2022/12/01 09:30:41;;;;;;;5.13;3.65;;;;;;;;;;5058133;28;20040;-74
2022/12/01 09:33:07;;;;;;;9.20;3.95;;;;;;;;;;5052571;28;20070;-75
2022/12/01 09:35:33;;;;;;;4.85;3.78;;;;;;;;;;5058284;28;20556;-75
2022/12/01 09:37:59;;;;;;;17.60;5.00;;;;;;;;;;5052092;28;20539;-76
2022/12/01 09:40:29;;;;;;;5.70;3.90;;;;;;;;;;5056274;28;20048;-76
2022/12/01 09:42:56;;;;;;;8.20;3.92;;;;;;;;;;5057379;28;20024;-76
2022/12/01 09:45:27;;;;;;;5.88;3.60;;;;;;;;;;5055150;28;20031;-76
2022/12/01 09:47:55;;;;;;;6.45;3.80;;;;;;;;;;5051126;28;20433;-73
2022/12/01 09:50:24;;;;;;;5.38;3.85;;;;;;;;;;5049967;28;20041;-73
2022/12/01 09:52:52;;;;;;;5.85;3.33;;;;;;;;;;5059295;28;20067;-74
2022/12/01 09:55:19;;;;;;;5.35;3.70;;;;;;;;;;5060605;28;20036;-73
2022/12/01 09:57:49;;;;;;;3.75;2.83;;;;;;;;;;5057359;28;20035;-73
2022/12/01 10:00:15;;;;;;;4.95;3.50;;;;;;;;;;5051007;28;20033;-73
2022/12/01 10:02:42;;;;;;;6.65;3.72;;;;;;;;;;5057566;28;20044;-73
2022/12/01 10:05:16;;;;;;;5.15;3.95;;;;;;;;;;5053994;28;20017;-73
2022/12/01 10:07:55;;;;;;;6.53;4.00;;;;;;;;;;5060396;28;20346;-72
2022/12/01 10:10:39;;;;;;;5.03;3.50;;;;;;;;;;5054171;28;20021;-73
2022/12/01 10:13:24;;;;;;;5.68;3.53;;;;;;;;;;5053055;28;20735;-73
2022/12/01 10:15:51;;;;;;;38.53;11.25;;;;;;;;;;5052270;28;20721;-73
2022/12/01 10:18:17;;;;;;;63.90;11.60;;;;;;;;;;5061448;28;20028;-74
2022/12/01 10:20:55;;;;;;;28.75;9.30;;;;;;;;;;5055716;28;20075;-73
2022/12/01 10:23:40;;;;;;;15.27;8.10;;;;;;;;;;5054230;28;20020;-73
2022/12/01 10:26:25;;;;;;;15.27;8.07;;;;;;;;;;5053909;28;20039;-73
2022/12/01 10:28:57;;;;;;;12.65;6.68;;;;;;;;;;5056192;28;20017;-72
2022/12/01 10:31:43;;;;;;;7.75;5.47;;;;;;;;;;5055629;28;20380;-73
2022/12/01 10:34:15;;;;;;;9.38;5.57;;;;;;;;;;5035483;28;20051;-73
2022/12/01 10:36:41;;;;;;;8.00;4.72;;;;;;;;;;5056793;28;20140;-73
2022/12/01 10:39:14;;;;;;;6.30;4.70;;;;;;;;;;5055668;28;20040;-73
2022/12/01 10:41:40;;;;;;;8.48;4.20;;;;;;;;;;5052070;28;20060;-74
2022/12/01 10:44:07;;;;;;;5.03;3.80;;;;;;;;;;5060868;28;20107;-73
2022/12/01 10:46:37;;;;;;;4.88;3.30;;;;;;;;;;5063244;28;20046;-73
2022/12/01 10:49:13;;;;;;;5.85;3.22;;;;;;;;;;5069111;28;20032;-73
2022/12/01 10:51:56;;;;;;;4.75;3.58;;;;;;;;;;5062309;28;20020;-73
2022/12/01 10:54:31;;;;;;;5.15;3.35;;;;;;;;;;5064115;28;20058;-73
2022/12/01 10:56:58;;;;;;;3.75;3.35;;;;;;;;;;5058679;28;20497;-73
2022/12/01 10:59:29;;;;;;;4.60;3.15;;;;;;;;;;5064425;28;20111;-73
2022/12/01 11:01:56;;;;;;;4.70;3.55;;;;;;;;;;5064882;28;20028;-73
2022/12/01 11:04:44;;;;;;;5.72;3.10;;;;;;;;;;5079706;28;20040;-73
2022/12/01 11:07:29;;;;;;;4.43;3.30;;;;;;;;;;5064312;28;20028;-73
2022/12/01 11:10:08;;;;;;;5.05;3.05;;;;;;;;;;5064200;28;20454;-73
2022/12/01 11:12:34;;;;;;;9.90;5.35;;;;;;;;;;5055182;28;20016;-73
2022/12/01 11:15:01;;;;;;;32.00;16.27;;;;;;;;;;5058163;28;20111;-73
2022/12/01 11:17:33;;;;;;;5.00;3.33;;;;;;;;;;5064340;28;20027;-73
2022/12/01 11:20:16;;;;;;;6.28;3.15;;;;;;;;;;5070709;28;20031;-74
2022/12/01 11:22:42;;;;;;;3.88;2.63;;;;;;;;;;5056367;28;20036;-74
2022/12/01 11:25:18;;;;;;;5.03;3.03;;;;;;;;;;5070546;28;20490;-74
2022/12/01 11:27:56;;;;;;;10.75;3.72;;;;;;;;;;5061748;28;20605;-75
2022/12/01 11:30:24;;;;;;;19.67;11.88;;;;;;;;;;5069564;28;20032;-73
2022/12/01 11:32:54;;;;;;;5.20;3.97;;;;;;;;;;5061858;28;20032;-74
2022/12/01 11:35:21;;;;;;;6.95;3.40;;;;;;;;;;5067626;28;20109;-74
2022/12/01 11:37:52;;;;;;;5.88;3.35;;;;;;;;;;5068186;28;20028;-74
2022/12/01 11:40:26;;;;;;;3.45;2.85;;;;;;;;;;5066283;28;20670;-74
2022/12/01 11:42:57;;;;;;;6.07;3.70;;;;;;;;;;5068190;28;20027;-74
2022/12/01 11:45:31;;;;;;;9.57;3.40;;;;;;;;;;5067912;28;20028;-74
2022/12/01 11:48:05;;;;;;;11.13;6.90;;;;;;;;;;5062508;28;20017;-74
2022/12/01 11:50:35;;;;;;;12.15;7.78;;;;;;;;;;5067578;28;20373;-74
2022/12/01 11:53:02;;;;;;;6.68;4.50;;;;;;;;;;5065900;28;20380;-75
2022/12/01 11:55:29;;;;;;;5.95;4.38;;;;;;;;;;5066736;28;20104;-74
2022/12/01 11:57:58;;;;;;;7.18;3.70;;;;;;;;;;5062142;28;20023;-75
2022/12/01 12:00:25;;;;;;;4.50;3.30;;;;;;;;;;5068275;28;20098;-75
2022/12/01 12:02:54;;;;;;;4.85;3.88;;;;;;;;;;5067239;28;20518;-75
2022/12/01 12:05:53;;;;;;;5.68;4.18;;;;;;;;;;5067235;28;20024;-75
2022/12/01 12:08:25;;;;;;;6.68;4.20;;;;;;;;;;5029091;28;20040;-75
2022/12/01 12:10:51;;;;;;;8.40;4.15;;;;;;;;;;5067854;28;20028;-75
2022/12/01 12:13:36;;;;;;;12.10;8.02;;;;;;;;;;5067868;28;20028;-75
2022/12/01 12:16:21;;;;;;;28.90;19.98;;;;;;;;;;5067732;28;20026;-75
2022/12/01 12:19:06;;;;;;;28.35;20.92;;;;;;;;;;5067544;28;20103;-75
2022/12/01 12:21:35;;;;;;;30.73;20.05;;;;;;;;;;5074445;28;20067;-75
2022/12/01 12:24:04;;;;;;;24.15;18.30;;;;;;;;;;5065977;28;20480;-75
2022/12/01 12:26:32;;;;;;;14.45;10.10;;;;;;;;;;5067745;28;20029;-75
2022/12/01 12:29:17;;;;;;;10.20;6.88;;;;;;;;;;5067388;28;20372;-74
2022/12/01 12:31:43;;;;;;;6.70;5.13;;;;;;;;;;5067502;28;20051;-75
2022/12/01 12:34:27;;;;;;;7.25;4.13;;;;;;;;;;5067207;28;20062;-75
2022/12/01 12:36:53;;;;;;;7.07;3.88;;;;;;;;;;5066301;28;20036;-74
2022/12/01 12:39:20;;;;;;;5.40;3.65;;;;;;;;;;5066180;28;20411;-75
2022/12/01 12:41:51;;;;;;;7.57;4.50;;;;;;;;;;5067532;28;20032;-75
2022/12/01 12:44:21;;;;;;;5.38;3.42;;;;;;;;;;5069490;28;20023;-75
2022/12/01 12:47:06;;;;;;;6.28;4.20;;;;;;;;;;5059958;28;20012;-75
2022/12/01 12:49:32;;;;;;;7.00;3.88;;;;;;;;;;5056945;28;20760;-75
2022/12/01 12:52:04;;;;;;;6.28;4.20;;;;;;;;;;5072284;28;20597;-75
2022/12/01 12:54:33;;;;;;;5.82;4.53;;;;;;;;;;5066982;28;20047;-75
2022/12/01 12:57:04;;;;;;;7.22;5.68;;;;;;;;;;5067259;28;20531;-75
2022/12/01 12:59:39;;;;;;;9.53;5.43;;;;;;;;;;5069992;28;20876;-75
2022/12/01 13:02:25;;;;;;;9.18;5.32;;;;;;;;;;5065254;28;20562;-74
2022/12/01 13:05:00;;;;;;;8.77;5.32;;;;;;;;;;5069989;28;20575;-75
2022/12/01 13:07:33;;;;;;;10.93;5.30;;;;;;;;;;5066953;28;20020;-75
2022/12/01 13:10:06;;;;;;;9.93;5.68;;;;;;;;;;5066875;28;20017;-75
2022/12/01 13:12:35;;;;;;;9.88;7.13;;;;;;;;;;5080718;28;20029;-75
2022/12/01 13:15:18;;;;;;;7.65;5.93;;;;;;;;;;5061979;28;20021;-75
2022/12/01 13:17:49;;;;;;;7.60;5.50;;;;;;;;;;5076367;28;20585;-75
2022/12/01 13:20:17;;;;;;;8.07;5.30;;;;;;;;;;5068933;28;20039;-75
2022/12/01 13:22:44;;;;;;;8.88;5.70;;;;;;;;;;5073152;28;20026;-75
2022/12/01 13:25:13;;;;;;;13.60;6.00;;;;;;;;;;5066261;28;20544;-74
2022/12/01 13:27:41;;;;;;;7.97;4.22;;;;;;;;;;5066898;28;20021;-75
2022/12/01 13:30:16;;;;;;;7.15;4.32;;;;;;;;;;5066697;28;20705;-75
2022/12/01 13:32:42;;;;;;;6.75;5.07;;;;;;;;;;5066450;28;20484;-74
2022/12/01 13:35:27;;;;;;;9.73;7.57;;;;;;;;;;5072687;28;20024;-74
2022/12/01 13:37:53;;;;;;;8.27;6.63;;;;;;;;;;5066618;28;20025;-75
2022/12/01 13:40:24;;;;;;;8.70;6.15;;;;;;;;;;5066569;28;20029;-75
2022/12/01 13:43:01;;;;;;;7.30;5.53;;;;;;;;;;5077656;28;20024;-74
2022/12/01 13:45:36;;;;;;;11.05;6.20;;;;;;;;;;5067627;28;20668;-74
2022/12/01 13:48:03;;;;;;;8.23;4.60;;;;;;;;;;5065702;28;20025;-75
2022/12/01 13:50:37;;;;;;;7.05;4.15;;;;;;;;;;5061809;28;20143;-75
2022/12/01 13:53:33;;;;;;;7.18;4.50;;;;;;;;;;5066049;28;20020;-74
2022/12/01 13:55:59;;;;;;;8.20;4.03;;;;;;;;;;5055480;28;20032;-74
2022/12/01 13:58:25;;;;;;;6.35;4.30;;;;;;;;;;5062500;28;20025;-75
2022/12/01 14:00:51;;;;;;;6.60;4.05;;;;;;;;;;5065873;28;20060;-74
2022/12/01 14:03:20;;;;;;;6.32;3.80;;;;;;;;;;5065635;28;20017;-74
2022/12/01 14:05:53;;;;;;;4.95;3.60;;;;;;;;;;5075419;28;20142;-74
2022/12/01 14:08:20;;;;;;;5.97;3.88;;;;;;;;;;5066476;28;20095;-74
2022/12/01 14:11:00;;;;;;;5.97;3.47;;;;;;;;;;5066027;28;20019;-75
2022/12/01 14:13:27;;;;;;;6.95;3.97;;;;;;;;;;5064096;28;20017;-75
2022/12/01 14:16:03;;;;;;;10.05;4.30;;;;;;;;;;5064199;28;20047;-74
2022/12/01 14:18:33;;;;;;;5.90;3.70;;;;;;;;;;5065434;28;20082;-74
2022/12/01 14:21:00;;;;;;;4.72;3.40;;;;;;;;;;5057782;28;20094;-74
2022/12/01 14:23:28;;;;;;;5.43;3.95;;;;;;;;;;5065019;28;20500;-75
2022/12/01 14:26:11;;;;;;;6.05;3.80;;;;;;;;;;5071682;28;20459;-74
2022/12/01 14:28:56;;;;;;;7.38;3.90;;;;;;;;;;5065727;28;20051;-74
2022/12/01 14:31:23;;;;;;;5.53;4.13;;;;;;;;;;5063817;28;20036;-74
2022/12/01 14:34:00;;;;;;;5.65;3.55;;;;;;;;;;5065067;28;20030;-74
2022/12/01 14:36:29;;;;;;;6.57;3.72;;;;;;;;;;5060393;28;20020;-74
2022/12/01 14:39:00;;;;;;;6.85;3.65;;;;;;;;;;5061929;28;20017;-75
2022/12/01 14:41:47;;;;;;;7.47;4.00;;;;;;;;;;5062010;28;20089;-74
2022/12/01 14:44:13;;;;;;;5.85;3.42;;;;;;;;;;5060240;28;20249;-74
2022/12/01 14:46:42;;;;;;;6.68;3.92;;;;;;;;;;5061799;28;20024;-74
2022/12/01 14:49:13;;;;;;;8.18;4.18;;;;;;;;;;5061007;28;20044;-75
2022/12/01 14:51:43;;;;;;;5.53;3.70;;;;;;;;;;5058546;28;20025;-74
2022/12/01 14:54:16;;;;;;;6.07;3.90;;;;;;;;;;5070240;28;20133;-74
2022/12/01 14:56:43;;;;;;;5.85;3.90;;;;;;;;;;5070114;28;20145;-74
2022/12/01 14:59:20;;;;;;;7.13;3.75;;;;;;;;;;5068273;28;20021;-74
2022/12/01 15:01:48;;;;;;;7.35;4.05;;;;;;;;;;5060603;28;20623;-74
2022/12/01 15:04:14;;;;;;;20.85;4.35;;;;;;;;;;5062686;28;20016;-75